Time;durP1;ratioP1;P1;durP2;ratioP2;P2;SDS_P1;SDS_P2;PMS_P1;PMS_P2;Temp;Humidity;BMP_temperature;BMP_pressure;BME280_temperature;BME280_humidity;BME280_pressure;Samples;Min_cycle;Max_cycle;Signal;HPM_P1;HPM_P2
2022/05/15 00:01:11;;;;;;;;;;;;;;;23.06;71.42;97042.81;611847;232;67361;-77
2022/05/15 00:03:41;;;;;;;;;;;;;;;23.06;71.57;97052.74;611776;229;65163;-74
2022/05/15 00:06:09;;;;;;;;;;;;;;;23.05;70.77;97046.56;611554;232;66985;-74
2022/05/15 00:08:38;;;;;;;;;;;;;;;23.06;70.87;97040.14;611851;232;66920;-74
2022/05/15 00:11:07;;;;;;;;;;;;;;;23.06;71.22;97044.70;611796;232;65272;-74
2022/05/15 00:13:35;;;;;;;;;;;;;;;23.04;71.27;97042.30;611856;232;67441;-74
2022/05/15 00:16:03;;;;;;;;;;;;;;;23.05;72.14;97041.20;611834;232;66864;-74
2022/05/15 00:18:30;;;;;;;;;;;;;;;23.04;71.24;97042.30;611804;232;65109;-74
2022/05/15 00:20:58;;;;;;;;;;;;;;;23.04;71.08;97035.05;611832;232;67135;-74
2022/05/15 00:23:25;;;;;;;;;;;;;;;23.04;71.47;97039.61;611836;232;65659;-74
2022/05/15 00:25:53;;;;;;;;;;;;;;;23.03;71.12;97036.14;611811;232;62972;-74
2022/05/15 00:28:21;;;;;;;;;;;;;;;23.04;71.09;97036.93;611873;232;64846;-74
2022/05/15 00:30:49;;;;;;;;;;;;;;;23.03;71.35;97038.02;611815;232;64807;-74
2022/05/15 00:33:16;;;;;;;;;;;;;;;23.04;71.38;97044.97;611827;232;65629;-74
2022/05/15 00:35:44;;;;;;;;;;;;;;;23.03;70.98;97043.39;611795;232;67161;-74
2022/05/15 00:38:12;;;;;;;;;;;;;;;23.03;70.82;97043.39;611800;232;67094;-74
2022/05/15 00:40:41;;;;;;;;;;;;;;;23.02;70.93;97052.48;611837;232;63151;-74
2022/05/15 00:43:12;;;;;;;;;;;;;;;23.02;70.79;97044.45;611802;232;67602;-74
2022/05/15 00:45:40;;;;;;;;;;;;;;;23.03;71.28;97048.75;611803;232;67132;-74
2022/05/15 00:48:08;;;;;;;;;;;;;;;23.02;70.63;97041.77;611842;232;65430;-75
2022/05/15 00:50:37;;;;;;;;;;;;;;;23.02;70.61;97041.77;611792;232;67095;-75
2022/05/15 00:53:06;;;;;;;;;;;;;;;23.02;71.09;97042.56;611891;232;65513;-74
2022/05/15 00:55:35;;;;;;;;;;;;;;;23.02;71.73;97041.77;611814;232;63031;-75
2022/05/15 00:58:07;;;;;;;;;;;;;;;23.02;71.12;97044.45;611752;231;64922;-69
2022/05/15 01:00:36;;;;;;;;;;;;;;;23.01;71.02;97046.34;611753;231;68337;-69
2022/05/15 01:03:08;;;;;;;;;;;;;;;23.00;71.68;97044.75;611444;230;65434;-69
2022/05/15 01:05:37;;;;;;;;;;;;;;;23.01;71.42;97048.22;611458;232;67060;-69
2022/05/15 01:08:05;;;;;;;;;;;;;;;23.01;71.39;97045.55;611842;232;64890;-74
2022/05/15 01:10:35;;;;;;;;;;;;;;;23.01;71.77;97042.86;611818;232;62798;-74
2022/05/15 01:13:04;;;;;;;;;;;;;;;23.01;71.10;97045.55;611814;232;64924;-75
2022/05/15 01:15:32;;;;;;;;;;;;;;;23.01;71.21;97037.50;611817;232;67239;-74
2022/05/15 01:18:01;;;;;;;;;;;;;;;23.00;71.39;97046.63;611869;232;66073;-75
2022/05/15 01:20:30;;;;;;;;;;;;;;;23.01;71.83;97040.97;611789;232;65524;-74
2022/05/15 01:22:58;;;;;;;;;;;;;;;23.00;71.45;97039.39;611911;230;67319;-74
2022/05/15 01:25:28;;;;;;;;;;;;;;;23.00;71.13;97047.43;611785;232;63960;-74
2022/05/15 01:28:03;;;;;;;;;;;;;;;23.00;71.47;97042.06;611840;232;67261;-75
2022/05/15 01:30:31;;;;;;;;;;;;;;;22.99;71.50;97043.13;611829;231;67094;-75
2022/05/15 01:32:58;;;;;;;;;;;;;;;22.99;71.49;97043.13;611818;232;65293;-69
2022/05/15 01:35:29;;;;;;;;;;;;;;;22.98;71.40;97038.87;611914;232;67591;-69
2022/05/15 01:37:57;;;;;;;;;;;;;;;22.99;71.13;97047.70;611830;232;65038;-69
2022/05/15 01:40:25;;;;;;;;;;;;;;;22.98;71.31;97033.50;611889;232;65881;-69
2022/05/15 01:42:52;;;;;;;;;;;;;;;22.98;71.15;97036.19;611883;232;66681;-69
2022/05/15 01:45:20;;;;;;;;;;;;;;;22.98;71.08;97035.39;611850;232;65446;-69
2022/05/15 01:47:49;;;;;;;;;;;;;;;22.98;71.50;97038.87;611911;232;63062;-69
2022/05/15 01:50:17;;;;;;;;;;;;;;;22.98;71.72;97040.75;611807;232;64434;-69
2022/05/15 01:52:45;;;;;;;;;;;;;;;22.97;71.24;97039.95;611862;232;66729;-69
2022/05/15 01:55:13;;;;;;;;;;;;;;;22.96;71.37;97041.02;611843;232;65398;-69
2022/05/15 01:57:41;;;;;;;;;;;;;;;22.97;71.32;97045.31;611846;232;67066;-69
2022/05/15 02:00:10;;;;;;;;;;;;;;;22.97;71.10;97045.31;611878;232;66821;-69
2022/05/15 02:02:39;;;;;;;;;;;;;;;22.98;71.75;97043.44;611904;230;45568;-69
2022/05/15 02:05:07;;;;;;;;;;;;;;;22.98;71.76;97040.75;611271;232;65488;-69
2022/05/15 02:07:35;;;;;;;;;;;;;;;22.97;71.51;97042.64;611660;229;67179;-69
2022/05/15 02:10:03;;;;;;;;;;;;;;;22.98;71.75;97038.07;611843;232;65329;-69
2022/05/15 02:12:31;;;;;;;;;;;;;;;22.96;71.41;97037.55;611869;232;64635;-69
2022/05/15 02:15:00;;;;;;;;;;;;;;;22.97;71.42;97039.14;611794;232;67691;-69
2022/05/15 02:17:28;;;;;;;;;;;;;;;22.96;71.40;97038.34;611840;232;65089;-69
2022/05/15 02:19:55;;;;;;;;;;;;;;;22.96;71.42;97037.55;611831;232;67150;-74
2022/05/15 02:22:23;;;;;;;;;;;;;;;22.96;71.20;97037.55;611823;232;66998;-75
2022/05/15 02:24:51;;;;;;;;;;;;;;;22.96;71.91;97035.66;611831;232;62513;-74
2022/05/15 02:27:18;;;;;;;;;;;;;;;22.95;71.77;97031.36;611853;232;67047;-75
2022/05/15 02:29:46;;;;;;;;;;;;;;;22.95;71.51;97031.36;611825;232;68158;-75
2022/05/15 02:32:14;;;;;;;;;;;;;;;22.96;71.85;97029.51;611888;232;62852;-75
2022/05/15 02:34:41;;;;;;;;;;;;;;;22.95;71.44;97035.93;611842;232;64524;-74
2022/05/15 02:37:09;;;;;;;;;;;;;;;22.95;71.66;97031.36;611882;232;66985;-75
2022/05/15 02:39:37;;;;;;;;;;;;;;;22.95;71.41;97038.61;611776;232;65439;-74
2022/05/15 02:42:05;;;;;;;;;;;;;;;22.95;71.34;97035.93;611842;232;65145;-75
2022/05/15 02:44:32;;;;;;;;;;;;;;;22.95;71.62;97031.36;611817;232;67116;-75
2022/05/15 02:47:00;;;;;;;;;;;;;;;22.95;71.75;97033.25;611839;232;63025;-74
2022/05/15 02:52:13;;;;;;;;;;;;;;;22.95;71.86;97038.61;611847;232;66901;-76
2022/05/15 02:54:40;;;;;;;;;;;;;;;22.94;71.62;97036.99;611860;232;63006;-76
2022/05/15 02:57:08;;;;;;;;;;;;;;;22.94;71.63;97036.99;611858;232;67077;-76
2022/05/15 02:59:37;;;;;;;;;;;;;;;22.95;71.43;97043.97;611833;232;66818;-76
2022/05/15 03:02:04;;;;;;;;;;;;;;;22.94;71.61;97051.19;611769;232;65128;-75
2022/05/15 03:04:32;;;;;;;;;;;;;;;22.94;71.81;97053.08;611818;232;67037;-76
2022/05/15 03:07:00;;;;;;;;;;;;;;;22.93;71.42;97049.59;611878;232;64849;-76
2022/05/15 03:09:27;;;;;;;;;;;;;;;22.93;71.49;97054.16;611843;232;65132;-76
2022/05/15 03:11:55;;;;;;;;;;;;;;;22.93;71.61;97048.80;611809;232;67461;-76
2022/05/15 03:14:22;;;;;;;;;;;;;;;22.93;71.79;97059.52;611870;232;64819;-76
2022/05/15 03:16:50;;;;;;;;;;;;;;;22.93;71.74;97056.84;611885;232;62997;-76
2022/05/15 03:19:18;;;;;;;;;;;;;;;22.92;71.57;97056.05;611799;232;67090;-76
2022/05/15 03:21:45;;;;;;;;;;;;;;;22.92;72.06;97050.69;611860;232;66679;-76
2022/05/15 03:24:13;;;;;;;;;;;;;;;22.93;71.69;97054.16;611799;232;65311;-76
2022/05/15 03:26:42;;;;;;;;;;;;;;;22.92;71.27;97058.73;611843;232;67084;-76
2022/05/15 03:29:11;;;;;;;;;;;;;;;22.92;71.45;97060.62;611565;232;65092;-76
2022/05/15 03:31:39;;;;;;;;;;;;;;;22.92;71.67;97052.58;611838;232;65413;-76
2022/05/15 03:34:08;;;;;;;;;;;;;;;22.93;71.49;97059.52;611838;232;67106;-76
2022/05/15 03:36:36;;;;;;;;;;;;;;;22.91;71.94;97057.11;611855;232;67351;-76
2022/05/15 03:39:06;;;;;;;;;;;;;;;22.92;71.76;97063.30;611840;232;62701;-76
2022/05/15 03:41:35;;;;;;;;;;;;;;;22.92;71.87;97069.45;611829;232;67207;-74
2022/05/15 03:44:06;;;;;;;;;;;;;;;22.90;71.92;97060.89;611908;232;46853;-75
2022/05/15 03:46:35;;;;;;;;;;;;;;;22.92;72.43;97074.81;611839;232;65236;-74
2022/05/15 03:49:02;;;;;;;;;;;;;;;22.90;71.46;97066.25;611839;232;64709;-74
2022/05/15 03:51:30;;;;;;;;;;;;;;;22.92;71.76;97065.98;611822;232;66943;-74
2022/05/15 03:53:59;;;;;;;;;;;;;;;22.91;71.82;97069.72;611809;232;65081;-74
2022/05/15 03:59:14;;;;;;;;;;;;;;;22.90;71.93;97070.81;611868;232;67002;-76
2022/05/15 04:01:42;;;;;;;;;;;;;;;22.90;71.97;97076.17;611817;232;65546;-74
2022/05/15 04:04:10;;;;;;;;;;;;;;;22.89;71.68;97072.70;611663;229;64517;-74
2022/05/15 04:06:38;;;;;;;;;;;;;;;22.89;71.89;97066.52;611832;232;64534;-74
2022/05/15 04:09:06;;;;;;;;;;;;;;;22.89;71.88;97074.55;611789;232;65650;-74
2022/05/15 04:11:34;;;;;;;;;;;;;;;22.89;71.12;97077.23;611865;232;64853;-74
2022/05/15 04:14:01;;;;;;;;;;;;;;;22.90;72.03;97078.85;611818;232;66895;-74
2022/05/15 04:16:29;;;;;;;;;;;;;;;22.88;71.39;97075.64;611854;232;63004;-74
2022/05/15 04:18:57;;;;;;;;;;;;;;;22.88;71.76;97078.33;611794;232;67063;-74
2022/05/15 04:21:24;;;;;;;;;;;;;;;22.87;71.70;97074.85;611818;232;66952;-74
2022/05/15 04:23:52;;;;;;;;;;;;;;;22.87;71.89;97074.85;611815;232;62953;-74
2022/05/15 04:26:20;;;;;;;;;;;;;;;22.88;71.73;97075.64;611832;232;67047;-74
2022/05/15 04:28:47;;;;;;;;;;;;;;;22.88;71.84;97079.12;611815;232;67068;-74
2022/05/15 04:31:15;;;;;;;;;;;;;;;22.88;72.12;97083.69;611829;232;65177;-74
2022/05/15 04:33:42;;;;;;;;;;;;;;;22.87;72.13;97085.57;611836;232;67038;-74
2022/05/15 04:36:10;;;;;;;;;;;;;;;22.87;71.59;97088.25;611858;232;64711;-74
2022/05/15 04:38:37;;;;;;;;;;;;;;;22.87;71.71;97082.09;611856;232;65115;-74
2022/05/15 04:41:05;;;;;;;;;;;;;;;22.87;71.77;97088.25;611829;232;67006;-74
2022/05/15 04:43:33;;;;;;;;;;;;;;;22.86;71.59;97086.63;611768;232;67388;-74
2022/05/15 04:46:03;;;;;;;;;;;;;;;22.87;71.77;97074.06;611803;232;65330;-74
2022/05/15 04:48:30;;;;;;;;;;;;;;;22.86;71.60;97080.48;611834;232;67030;-76
2022/05/15 04:50:57;;;;;;;;;;;;;;;22.86;71.39;97081.27;611811;232;66722;-70
2022/05/15 04:53:27;;;;;;;;;;;;;;;22.87;72.06;97084.78;611812;232;65324;-70
2022/05/15 04:55:54;;;;;;;;;;;;;;;22.86;72.01;97080.48;611792;232;67039;-70
2022/05/15 04:58:22;;;;;;;;;;;;;;;22.86;71.74;97089.31;611808;232;66881;-70
2022/05/15 05:00:50;;;;;;;;;;;;;;;22.85;71.62;97079.69;611842;232;65158;-70
2022/05/15 05:03:17;;;;;;;;;;;;;;;22.86;72.08;97083.16;611744;230;66835;-70
2022/05/15 05:05:45;;;;;;;;;;;;;;;22.86;71.83;97085.84;611815;232;66906;-70
2022/05/15 05:08:14;;;;;;;;;;;;;;;22.86;71.69;97083.16;611797;232;65131;-70
2022/05/15 05:10:42;;;;;;;;;;;;;;;22.85;71.99;97087.72;611810;232;65260;-70
2022/05/15 05:13:10;;;;;;;;;;;;;;;22.86;72.20;97091.20;611830;232;66735;-70
2022/05/15 05:15:37;;;;;;;;;;;;;;;22.85;71.93;97086.93;611858;232;65397;-70
2022/05/15 05:18:05;;;;;;;;;;;;;;;22.85;71.85;97076.21;611781;232;66747;-70
2022/05/15 05:20:32;;;;;;;;;;;;;;;22.85;72.09;97090.41;611827;232;66954;-70
2022/05/15 05:23:00;;;;;;;;;;;;;;;22.84;71.84;97083.45;611786;229;62784;-70
2022/05/15 05:25:27;;;;;;;;;;;;;;;22.85;72.71;97085.05;611841;232;67036;-70
2022/05/15 05:27:55;;;;;;;;;;;;;;;22.83;72.20;97079.98;611796;232;64716;-70
2022/05/15 05:30:23;;;;;;;;;;;;;;;22.84;72.15;97080.78;611827;232;63006;-70
2022/05/15 05:32:51;;;;;;;;;;;;;;;22.84;72.12;97083.45;611760;232;64654;-70
2022/05/15 05:35:20;;;;;;;;;;;;;;;22.83;71.62;97081.84;611838;232;64788;-70
2022/05/15 05:37:48;;;;;;;;;;;;;;;22.83;72.50;97079.16;611790;232;65427;-70
2022/05/15 05:40:15;;;;;;;;;;;;;;;22.82;72.46;97083.72;611827;232;67159;-70
2022/05/15 05:42:43;;;;;;;;;;;;;;;22.82;72.26;97080.25;611846;232;64960;-70
2022/05/15 05:45:11;;;;;;;;;;;;;;;22.84;72.79;97078.09;611774;232;63886;-70
2022/05/15 05:47:38;;;;;;;;;;;;;;;22.82;72.28;97082.93;611818;232;67135;-70
2022/05/15 05:50:12;;;;;;;;;;;;;;;22.82;72.37;97083.72;611849;232;66096;-70
2022/05/15 05:52:38;;;;;;;;;;;;;;;22.82;72.95;97078.36;611516;232;65504;-70
2022/05/15 05:55:07;;;;;;;;;;;;;;;22.82;72.61;97086.41;611861;232;64561;-70
2022/05/15 05:57:35;;;;;;;;;;;;;;;22.82;74.04;97080.25;611761;232;67021;-70
2022/05/15 06:00:03;;;;;;;;;;;;;;;22.82;72.66;97082.93;611827;232;65121;-70
2022/05/15 06:02:32;;;;;;;;;;;;;;;22.82;72.60;97074.89;611592;232;48767;-70
2022/05/15 06:05:00;;;;;;;;;;;;;;;22.82;72.87;97091.77;611834;232;64379;-70
2022/05/15 06:07:29;;;;;;;;;;;;;;;22.81;72.52;97092.85;611893;232;65398;-75
2022/05/15 06:09:56;;;;;;;;;;;;;;;22.81;72.43;97092.06;611816;232;70882;-75
2022/05/15 06:12:25;;;;;;;;;;;;;;;22.81;73.75;97089.37;611817;232;67049;-75
2022/05/15 06:14:53;;;;;;;;;;;;;;;22.79;73.56;97092.33;611834;232;63191;-75
2022/05/15 06:17:21;;;;;;;;;;;;;;;22.81;73.38;97089.37;611856;232;64591;-75
2022/05/15 06:19:49;;;;;;;;;;;;;;;22.82;72.44;97093.65;611863;232;64711;-75
2022/05/15 06:22:16;;;;;;;;;;;;;;;22.82;72.12;97088.29;611843;232;63079;-75
2022/05/15 06:24:44;;;;;;;;;;;;;;;22.82;72.28;97089.08;611810;232;67318;-75
2022/05/15 06:27:11;;;;;;;;;;;;;;;22.83;72.02;97098.73;611848;232;66918;-75
2022/05/15 06:29:39;;;;;;;;;;;;;;;22.83;72.49;97098.73;611857;232;65122;-75
2022/05/15 06:32:08;;;;;;;;;;;;;;;22.83;72.15;97090.70;611847;232;67346;-75
2022/05/15 06:34:35;;;;;;;;;;;;;;;22.84;72.10;97088.81;611872;232;67126;-75
2022/05/15 06:37:03;;;;;;;;;;;;;;;22.86;72.67;97093.88;611836;232;65431;-75
2022/05/15 06:39:31;;;;;;;;;;;;;;;22.85;72.30;97095.77;606531;232;67082;-75
2022/05/15 06:42:00;;;;;;;;;;;;;;;22.85;72.56;97090.41;611859;232;67755;-75
2022/05/15 06:44:41;;;;;;;;;;;;;;;22.86;72.76;97085.84;611834;232;65840;-75
2022/05/15 06:47:08;;;;;;;;;;;;;;;22.86;72.55;97091.20;611834;232;67091;-75
2022/05/15 06:49:36;;;;;;;;;;;;;;;22.86;72.20;97097.34;611882;232;67117;-75
2022/05/15 06:52:04;;;;;;;;;;;;;;;22.86;72.16;97097.34;611818;229;65075;-75
2022/05/15 06:54:31;;;;;;;;;;;;;;;22.87;72.49;97100.85;611866;232;67066;-75
2022/05/15 06:59:45;;;;;;;;;;;;;;;22.88;72.39;97099.77;611852;232;62999;-75
2022/05/15 07:02:12;;;;;;;;;;;;;;;22.87;72.28;97100.85;611838;231;67079;-75
2022/05/15 07:04:40;;;;;;;;;;;;;;;22.87;71.90;97100.85;611894;232;67600;-75
2022/05/15 07:07:08;;;;;;;;;;;;;;;22.87;72.19;97103.53;606493;232;65398;-75
2022/05/15 07:09:35;;;;;;;;;;;;;;;22.87;72.55;97104.33;611864;232;64884;-75
2022/05/15 07:12:03;;;;;;;;;;;;;;;22.87;72.28;97103.53;611824;232;67229;-75
2022/05/15 07:14:30;;;;;;;;;;;;;;;22.87;72.07;97111.57;611855;232;65488;-75
2022/05/15 07:16:58;;;;;;;;;;;;;;;22.88;72.03;97113.16;611870;232;67191;-75
2022/05/15 07:19:26;;;;;;;;;;;;;;;22.88;71.93;97113.95;611780;232;64787;-75
2022/05/15 07:21:53;;;;;;;;;;;;;;;22.88;72.10;97113.16;611834;232;62936;-75
2022/05/15 07:24:22;;;;;;;;;;;;;;;22.88;72.31;97111.27;611815;232;64772;-75
2022/05/15 07:26:50;;;;;;;;;;;;;;;22.88;72.37;97115.84;611813;232;66980;-74
2022/05/15 07:29:18;;;;;;;;;;;;;;;22.88;72.27;97121.20;611858;232;65439;-75
2022/05/15 07:31:46;;;;;;;;;;;;;;;22.89;71.78;97117.42;611831;232;66901;-74
2022/05/15 07:34:16;;;;;;;;;;;;;;;22.89;72.28;97117.42;611881;232;48130;-74
2022/05/15 07:36:44;;;;;;;;;;;;;;;22.89;72.39;97126.30;611790;232;65538;-74
2022/05/15 07:39:12;;;;;;;;;;;;;;;22.89;72.03;97126.30;611860;232;65065;-74
2022/05/15 07:41:40;;;;;;;;;;;;;;;22.89;72.31;97133.51;611823;232;66958;-74
2022/05/15 07:44:07;;;;;;;;;;;;;;;22.90;72.31;97124.41;611817;232;65128;-74
2022/05/15 07:46:35;;;;;;;;;;;;;;;22.89;72.49;97133.51;611837;232;67102;-74
2022/05/15 07:49:02;;;;;;;;;;;;;;;22.90;72.24;97132.45;611827;232;66891;-74
2022/05/15 07:51:31;;;;;;;;;;;;;;;22.89;72.02;97128.14;611854;232;65138;-75
2022/05/15 07:53:59;;;;;;;;;;;;;;;22.89;72.18;97134.33;611893;229;67418;-74
2022/05/15 07:56:28;;;;;;;;;;;;;;;22.88;72.22;97138.07;611816;232;67003;-74
2022/05/15 07:58:55;;;;;;;;;;;;;;;22.89;72.32;97138.87;611824;232;63008;-74
2022/05/15 08:01:23;;;;;;;;;;;;;;;22.89;72.11;97141.55;611763;232;64669;-74
2022/05/15 08:03:50;;;;;;;;;;;;;;;22.90;72.44;97156.56;611993;229;64820;-74
2022/05/15 08:09:05;;;;;;;;;;;;;;;22.89;72.03;97144.22;611829;232;64901;-74
2022/05/15 08:11:32;;;;;;;;;;;;;;;22.89;72.21;97153.09;611848;232;64934;-74
2022/05/15 08:14:01;;;;;;;;;;;;;;;22.88;72.08;97146.11;611825;232;65116;-74
2022/05/15 08:16:28;;;;;;;;;;;;;;;22.88;72.17;97143.43;611825;232;66988;-74
2022/05/15 08:24:27;;;;;;;;;;;;;;;22.88;72.18;97156.83;611803;232;64772;-75
2022/05/15 08:26:56;;;;;;;;;;;;;;;22.89;72.12;97160.30;611784;232;64961;-76
2022/05/15 08:29:23;;;;;;;;;;;;;;;22.89;72.29;97155.77;611832;232;65324;-76
2022/05/15 08:31:51;;;;;;;;;;;;;;;22.89;72.12;97158.45;611792;232;67005;-76
2022/05/15 08:34:19;;;;;;;;;;;;;;;22.88;72.07;97161.39;611868;232;65733;-76
2022/05/15 08:36:46;;;;;;;;;;;;;;;22.89;72.25;97165.66;611810;232;64967;-76
2022/05/15 08:39:14;;;;;;;;;;;;;;;22.89;72.49;97171.02;611798;232;67121;-76
2022/05/15 08:41:50;;;;;;;;;;;;;;;22.89;72.33;97160.30;611831;232;64958;-75
2022/05/15 08:44:21;;;;;;;;;;;;;;;22.88;72.22;97164.87;611813;232;63078;-75
2022/05/15 08:47:07;;;;;;;;;;;;;;;22.88;72.53;97180.16;611827;232;66950;-75
2022/05/15 08:49:36;;;;;;;;;;;;;;;22.88;72.25;97178.27;611866;232;66992;-75
2022/05/15 08:52:17;;;;;;;;;;;;;;;22.88;72.08;97180.16;611851;232;62981;-75
2022/05/15 08:54:49;;;;;;;;;;;;;;;22.89;72.37;97181.74;611809;232;67707;-75
2022/05/15 08:57:27;;;;;;;;;;;;;;;22.89;72.14;97187.10;611750;232;66904;-75
2022/05/15 08:59:56;;;;;;;;;;;;;;;22.88;72.23;97188.19;598191;236;63015;-75
2022/05/15 09:02:25;;;;;;;;;;;;;;;22.87;72.11;97182.03;611880;231;67061;-75
2022/05/15 09:04:53;;;;;;;;;;;;;;;22.89;71.70;97187.10;611812;232;67108;-74
2022/05/15 09:07:27;;;;;;;;;;;;;;;22.88;72.24;97190.88;611885;232;65393;-75
2022/05/15 09:10:05;;;;;;;;;;;;;;;22.88;72.25;97180.16;611758;232;67091;-75
2022/05/15 09:12:35;;;;;;;;;;;;;;;22.88;72.03;97183.63;611609;232;64738;-75
2022/05/15 09:15:04;;;;;;;;;;;;;;;22.88;71.99;97180.16;611811;232;63965;-75
2022/05/15 09:17:34;;;;;;;;;;;;;;;22.88;72.23;97182.83;611626;232;64249;-75
2022/05/15 09:20:10;;;;;;;;;;;;;;;22.89;72.14;97189.78;611824;231;66922;-74
2022/05/15 09:22:42;;;;;;;;;;;;;;;22.88;72.05;97185.52;611832;232;65236;-75
2022/05/15 09:25:11;;;;;;;;;;;;;;;22.87;72.11;97190.08;611790;232;64828;-75
2022/05/15 09:27:39;;;;;;;;;;;;;;;22.88;71.95;97180.16;611647;229;67025;-75
2022/05/15 09:30:08;;;;;;;;;;;;;;;22.87;72.37;97187.39;611766;232;65122;-75
2022/05/15 09:32:43;;;;;;;;;;;;;;;22.88;72.36;97185.52;611781;232;67130;-75
2022/05/15 09:35:17;;;;;;;;;;;;;;;22.88;72.39;97191.66;611879;232;64381;-75
2022/05/15 09:43:30;;;;;;;;;;;;;;;22.87;72.09;97184.72;611807;232;67128;-75
2022/05/15 09:43:33;;;;;;;;;;;;;;;22.88;72.50;97190.88;611191;231;67211;-75
2022/05/15 09:46:02;;;;;;;;;;;;;;;22.87;72.16;97200.00;611810;232;63285;-75
2022/05/15 09:48:31;;;;;;;;;;;;;;;22.88;71.89;97194.34;611679;232;64839;-75
2022/05/15 09:51:00;;;;;;;;;;;;;;;22.87;71.99;97197.32;611765;230;64863;-70
2022/05/15 09:53:45;;;;;;;;;;;;;;;22.88;72.31;97201.59;611870;232;65449;-69
2022/05/15 09:56:23;;;;;;;;;;;;;;;22.87;72.37;97200.00;611899;232;67230;-69
2022/05/15 09:58:55;;;;;;;;;;;;;;;22.87;72.28;97195.44;611837;232;66783;-69
2022/05/15 10:01:24;;;;;;;;;;;;;;;22.87;72.49;97206.16;611868;232;63241;-69
2022/05/15 10:03:54;;;;;;;;;;;;;;;22.87;71.91;97200.00;611580;229;63917;-70
2022/05/15 10:06:23;;;;;;;;;;;;;;;22.87;72.43;97200.00;611261;232;66828;-70
2022/05/15 10:09:06;;;;;;;;;;;;;;;22.87;72.17;97194.64;611220;232;65973;-70
2022/05/15 10:11:35;;;;;;;;;;;;;;;22.87;72.30;97202.68;602403;231;64822;-69
2022/05/15 10:14:03;;;;;;;;;;;;;;;22.88;72.12;97209.63;611259;232;66756;-70
2022/05/15 10:16:32;;;;;;;;;;;;;;;22.87;72.30;97197.32;611278;232;63068;-69
2022/05/15 10:19:10;;;;;;;;;;;;;;;22.87;72.11;97197.32;611554;232;66781;-69
2022/05/15 10:21:45;;;;;;;;;;;;;;;22.86;72.41;97193.02;611806;230;64616;-69
2022/05/15 10:24:17;;;;;;;;;;;;;;;22.86;72.29;97183.09;611483;232;63011;-69
2022/05/15 10:27:02;;;;;;;;;;;;;;;22.86;71.92;97188.45;611896;232;64928;-69
2022/05/15 10:29:36;;;;;;;;;;;;;;;22.86;71.96;97185.78;611878;232;66945;-69
2022/05/15 10:32:05;;;;;;;;;;;;;;;22.87;72.40;97178.56;611836;232;65330;-69
2022/05/15 10:34:32;;;;;;;;;;;;;;;22.87;72.49;97178.56;611737;230;64872;-69
2022/05/15 10:37:04;;;;;;;;;;;;;;;22.86;72.21;97182.30;611859;232;64991;-69
2022/05/15 10:39:35;;;;;;;;;;;;;;;22.86;72.32;97172.38;611813;232;62884;-69
2022/05/15 10:42:20;;;;;;;;;;;;;;;22.87;72.29;97183.92;611131;232;64684;-70
2022/05/15 10:44:55;;;;;;;;;;;;;;;22.86;72.19;97175.06;611851;232;66932;-69
2022/05/15 10:47:24;;;;;;;;;;;;;;;22.85;72.30;97170.79;611840;232;62973;-70
2022/05/15 10:49:56;;;;;;;;;;;;;;;22.86;72.32;97184.98;611863;232;64922;-70
2022/05/15 10:52:28;;;;;;;;;;;;;;;22.87;72.04;97183.92;611847;232;66659;-69
2022/05/15 10:57:53;;;;;;;;;;;;;;;22.86;72.41;97182.30;611830;232;66912;-69
2022/05/15 11:00:22;;;;;;;;;;;;;;;22.86;72.06;97183.09;611497;232;67321;-69
2022/05/15 11:03:09;;;;;;;;;;;;;;;22.87;72.23;97189.28;611810;230;65119;-70
2022/05/15 11:05:55;;;;;;;;;;;;;;;22.86;72.37;97182.30;611838;232;67060;-69
2022/05/15 11:08:30;;;;;;;;;;;;;;;22.86;72.53;97187.66;611832;232;66934;-69
2022/05/15 11:11:08;;;;;;;;;;;;;;;22.86;72.26;97174.27;611826;232;63012;-69
2022/05/15 11:13:46;;;;;;;;;;;;;;;22.85;71.96;97184.19;611814;232;67075;-70
2022/05/15 11:16:19;;;;;;;;;;;;;;;22.85;72.13;97176.15;611806;232;64847;-70
2022/05/15 11:19:04;;;;;;;;;;;;;;;22.87;72.40;97181.24;611879;232;62852;-75
2022/05/15 11:21:34;;;;;;;;;;;;;;;22.86;72.49;97185.78;611917;232;64711;-75
2022/05/15 11:24:03;;;;;;;;;;;;;;;22.86;72.31;97184.98;611155;232;66838;-74
2022/05/15 11:26:39;;;;;;;;;;;;;;;22.86;72.15;97187.66;611888;231;62819;-74
2022/05/15 11:29:08;;;;;;;;;;;;;;;22.85;72.24;97176.15;609605;232;67285;-75
2022/05/15 11:31:37;;;;;;;;;;;;;;;22.85;72.51;97170.79;611829;232;67233;-75
2022/05/15 11:34:08;;;;;;;;;;;;;;;22.86;72.44;97168.91;611849;232;65110;-75
2022/05/15 11:36:38;;;;;;;;;;;;;;;22.86;72.40;97171.58;611838;232;67118;-76
2022/05/15 11:39:17;;;;;;;;;;;;;;;22.85;72.11;97168.11;611822;232;64784;-76
2022/05/15 11:44:36;;;;;;;;;;;;;;;22.86;72.06;97168.91;611843;232;64907;-76
2022/05/15 11:47:17;;;;;;;;;;;;;;;22.86;72.29;97166.23;611831;232;66920;-70
2022/05/15 11:49:59;;;;;;;;;;;;;;;22.86;72.13;97171.58;611788;232;65325;-71
2022/05/15 11:52:40;;;;;;;;;;;;;;;22.86;72.26;97160.87;611803;232;64830;-71
2022/05/15 11:55:26;;;;;;;;;;;;;;;22.86;72.21;97172.38;611762;232;66902;-69
2022/05/15 11:57:53;;;;;;;;;;;;;;;22.85;72.41;97164.64;611829;232;65294;-70
2022/05/15 12:00:23;;;;;;;;;;;;;;;22.85;72.32;97164.64;611833;232;64875;-70
2022/05/15 12:02:51;;;;;;;;;;;;;;;22.85;72.34;97159.28;611797;229;64980;-70
2022/05/15 12:05:38;;;;;;;;;;;;;;;22.85;72.37;97160.08;611789;232;63145;-69
2022/05/15 12:08:20;;;;;;;;;;;;;;;22.85;71.99;97156.59;611827;232;64908;-70
2022/05/15 12:10:49;;;;;;;;;;;;;;;22.85;72.33;97160.08;611812;232;66773;-70
2022/05/15 12:13:28;;;;;;;;;;;;;;;22.86;72.31;97163.55;611825;232;65954;-70
2022/05/15 12:16:13;;;;;;;;;;;;;;;22.85;72.36;97165.43;611845;232;67104;-70
2022/05/15 12:18:41;;;;;;;;;;;;;;;22.85;72.14;97160.08;611748;232;65990;-70
2022/05/15 12:21:08;;;;;;;;;;;;;;;22.86;72.15;97155.50;611832;232;64165;-70
2022/05/15 12:23:38;;;;;;;;;;;;;;;22.85;72.32;97161.95;611697;232;67029;-70
2022/05/15 12:26:09;;;;;;;;;;;;;;;22.85;71.82;97162.75;611720;232;66792;-70
2022/05/15 12:28:53;;;;;;;;;;;;;;;22.85;72.21;97160.08;611627;232;65107;-70
2022/05/15 12:31:25;;;;;;;;;;;;;;;22.85;72.08;97157.39;611675;232;67364;-70
2022/05/15 12:33:54;;;;;;;;;;;;;;;22.85;72.22;97149.35;611144;232;67123;-70
2022/05/15 12:36:35;;;;;;;;;;;;;;;22.85;72.42;97140.52;611817;232;65576;-70
2022/05/15 12:39:03;;;;;;;;;;;;;;;22.85;72.37;97135.16;611805;232;67112;-70
2022/05/15 12:41:32;;;;;;;;;;;;;;;22.86;72.46;97139.43;611815;232;64778;-70
2022/05/15 12:44:01;;;;;;;;;;;;;;;22.85;72.59;97137.84;611752;230;62797;-69
2022/05/15 12:46:39;;;;;;;;;;;;;;;22.85;72.10;97140.52;611741;232;67318;-69
2022/05/15 12:49:08;;;;;;;;;;;;;;;22.86;72.52;97147.47;611729;232;66931;-70
2022/05/15 12:51:39;;;;;;;;;;;;;;;22.85;72.21;97137.84;611820;232;65496;-69
2022/05/15 12:54:17;;;;;;;;;;;;;;;22.86;72.42;97142.11;611782;232;67115;-69
2022/05/15 12:56:46;;;;;;;;;;;;;;;22.86;72.16;97147.47;607138;232;66838;-71
2022/05/15 12:59:18;;;;;;;;;;;;;;;22.85;72.18;97127.13;611717;232;65551;-70
2022/05/15 13:01:45;;;;;;;;;;;;;;;22.85;72.43;97127.92;611896;232;65687;-70
2022/05/15 13:04:20;;;;;;;;;;;;;;;22.84;72.41;97126.33;611782;229;67111;-70
2022/05/15 13:06:58;;;;;;;;;;;;;;;22.85;72.44;97124.44;611753;232;65409;-70
2022/05/15 13:09:24;;;;;;;;;;;;;;;22.85;72.37;97124.44;611311;230;67156;-71
2022/05/15 13:11:54;;;;;;;;;;;;;;;22.85;72.41;97125.23;611835;232;67021;-71
2022/05/15 13:14:29;;;;;;;;;;;;;;;22.85;72.24;97135.95;611850;232;65273;-68
2022/05/15 13:16:57;;;;;;;;;;;;;;;22.85;72.37;97127.13;611731;232;64901;-69
2022/05/15 13:19:26;;;;;;;;;;;;;;;22.85;72.47;97132.48;611782;232;66090;-69
2022/05/15 13:21:54;;;;;;;;;;;;;;;22.84;72.53;97137.05;611222;232;65133;-69
2022/05/15 13:24:23;;;;;;;;;;;;;;;22.85;72.37;97135.16;611788;232;67272;-69
2022/05/15 13:26:51;;;;;;;;;;;;;;;22.83;72.17;97133.58;611883;232;66672;-69